TimeEST,TemperatureF,Dew PointF,Humidity,Sea Level PressureIn,VisibilityMPH,Wind Direction,Wind SpeedMPH,Gust SpeedMPH,PrecipitationIn,Events,Conditions,WindDirDegrees,DateUTC
12:51 AM,30.9,15.1,52,29.57,10.0,West,8.1,16.1,N/A,,Mostly Cloudy,270,2012-11-25 05:51:00
1:51 AM,30.0,16.0,56,29.60,10.0,West,9.2,18.4,N/A,,Mostly Cloudy,280,2012-11-25 06:51:00
2:51 AM,30.0,16.0,56,29.62,10.0,West,11.5,23.0,N/A,,Partly Cloudy,280,2012-11-25 07:51:00
4:51 AM,30.0,15.1,54,29.63,10.0,West,8.1,19.6,N/A,,Mostly Cloudy,280,2012-11-25 09:51:00
5:51 AM,30.0,14.0,51,29.65,10.0,West,9.2,17.3,N/A,,Partly Cloudy,270,2012-11-25 10:51:00
7:51 AM,30.0,12.9,49,29.67,10.0,Variable,6.9,-,N/A,,Partly Cloudy,0,2012-11-25 12:51:00
8:51 AM,30.9,12.0,46,29.68,10.0,West,13.8,31.1,N/A,,Partly Cloudy,280,2012-11-25 13:51:00
9:51 AM,32.0,12.0,44,29.69,10.0,West,9.2,25.3,N/A,,Partly Cloudy,280,2012-11-25 14:51:00
10:51 AM,34.0,12.0,40,29.69,10.0,West,8.1,20.7,N/A,,Clear,260,2012-11-25 15:51:00
11:51 AM,35.1,10.9,37,29.67,10.0,West,12.7,23.0,N/A,,Clear,260,2012-11-25 16:51:00
12:51 PM,34.0,10.0,37,29.66,10.0,WNW,9.2,18.4,N/A,,Clear,290,2012-11-25 17:51:00
1:51 PM,35.1,8.1,33,29.66,10.0,Variable,6.9,21.9,N/A,,Clear,0,2012-11-25 18:51:00
2:51 PM,36.0,3.0,25,29.66,10.0,WNW,8.1,21.9,N/A,,Clear,290,2012-11-25 19:51:00
3:51 PM,35.1,3.9,27,29.68,10.0,WNW,5.8,-,N/A,,Clear,300,2012-11-25 20:51:00
4:51 PM,34.0,8.1,34,29.70,10.0,Variable,3.5,-,N/A,,Clear,0,2012-11-25 21:51:00
5:51 PM,33.1,12.0,42,29.72,10.0,Variable,3.5,-,N/A,,Clear,0,2012-11-25 22:51:00
6:51 PM,32.0,15.1,50,29.73,10.0,Variable,3.5,-,N/A,,Clear,0,2012-11-25 23:51:00
7:51 PM,30.9,17.1,57,29.75,10.0,Calm,Calm,-,N/A,,Clear,0,2012-11-26 00:51:00
9:51 PM,30.0,18.0,61,29.77,10.0,South,5.8,-,N/A,,Clear,180,2012-11-26 02:51:00
10:51 PM,27.0,18.0,69,29.78,10.0,Calm,Calm,-,N/A,,Clear,0,2012-11-26 03:51:00
11:51 PM,28.0,18.0,66,29.80,10.0,Calm,Calm,-,N/A,,Clear,0,2012-11-26 04:51:00